sensor_id;sensor_type;location;lat;lon;timestamp;P1;durP1;ratioP1;P2;durP2;ratioP2
37077;SDS011;22989;55.998;37.212;2022-08-19T00:01:27;12.55;;;8.02;;
37077;SDS011;22989;55.998;37.212;2022-08-19T00:03:58;15.95;;;7.90;;
37077;SDS011;22989;55.998;37.212;2022-08-19T00:06:25;12.45;;;8.05;;
37077;SDS011;22989;55.998;37.212;2022-08-19T00:08:52;13.93;;;7.78;;
37077;SDS011;22989;55.998;37.212;2022-08-19T00:11:18;12.15;;;7.97;;
37077;SDS011;22989;55.998;37.212;2022-08-19T00:13:44;11.80;;;7.93;;
37077;SDS011;22989;55.998;37.212;2022-08-19T00:16:14;15.27;;;7.68;;
37077;SDS011;22989;55.998;37.212;2022-08-19T00:18:40;14.30;;;7.85;;
37077;SDS011;22989;55.998;37.212;2022-08-19T00:21:06;12.27;;;7.88;;
37077;SDS011;22989;55.998;37.212;2022-08-19T00:23:32;18.42;;;8.40;;
37077;SDS011;22989;55.998;37.212;2022-08-19T00:26:00;12.32;;;7.78;;
37077;SDS011;22989;55.998;37.212;2022-08-19T00:28:26;10.75;;;7.88;;
37077;SDS011;22989;55.998;37.212;2022-08-19T00:30:51;13.63;;;7.45;;
37077;SDS011;22989;55.998;37.212;2022-08-19T00:33:18;17.27;;;8.18;;
37077;SDS011;22989;55.998;37.212;2022-08-19T00:35:44;12.88;;;7.93;;
37077;SDS011;22989;55.998;37.212;2022-08-19T00:38:10;12.45;;;8.20;;
37077;SDS011;22989;55.998;37.212;2022-08-19T00:40:36;14.23;;;7.97;;
37077;SDS011;22989;55.998;37.212;2022-08-19T00:43:07;20.58;;;8.35;;
37077;SDS011;22989;55.998;37.212;2022-08-19T00:45:38;10.95;;;7.78;;
37077;SDS011;22989;55.998;37.212;2022-08-19T00:48:09;14.63;;;7.60;;
37077;SDS011;22989;55.998;37.212;2022-08-19T00:50:36;12.18;;;7.72;;
37077;SDS011;22989;55.998;37.212;2022-08-19T00:53:05;11.70;;;8.55;;
37077;SDS011;22989;55.998;37.212;2022-08-19T00:55:32;14.95;;;8.23;;
37077;SDS011;22989;55.998;37.212;2022-08-19T00:58:04;11.40;;;7.72;;
37077;SDS011;22989;55.998;37.212;2022-08-19T01:00:34;16.05;;;8.43;;
37077;SDS011;22989;55.998;37.212;2022-08-19T01:03:09;16.70;;;8.50;;
37077;SDS011;22989;55.998;37.212;2022-08-19T01:05:37;13.90;;;8.15;;
37077;SDS011;22989;55.998;37.212;2022-08-19T01:08:06;13.95;;;8.45;;
37077;SDS011;22989;55.998;37.212;2022-08-19T01:10:33;20.63;;;9.00;;
37077;SDS011;22989;55.998;37.212;2022-08-19T01:13:07;15.45;;;8.70;;
37077;SDS011;22989;55.998;37.212;2022-08-19T01:15:35;16.88;;;8.57;;
37077;SDS011;22989;55.998;37.212;2022-08-19T01:18:08;16.70;;;8.45;;
37077;SDS011;22989;55.998;37.212;2022-08-19T01:20:36;13.95;;;7.97;;
37077;SDS011;22989;55.998;37.212;2022-08-19T01:23:02;16.15;;;7.63;;
37077;SDS011;22989;55.998;37.212;2022-08-19T01:25:38;14.52;;;7.93;;
37077;SDS011;22989;55.998;37.212;2022-08-19T01:28:13;15.25;;;8.20;;
37077;SDS011;22989;55.998;37.212;2022-08-19T01:30:41;14.73;;;8.00;;
37077;SDS011;22989;55.998;37.212;2022-08-19T01:33:08;13.48;;;7.95;;
37077;SDS011;22989;55.998;37.212;2022-08-19T01:35:34;10.90;;;7.20;;
37077;SDS011;22989;55.998;37.212;2022-08-19T01:38:06;13.07;;;7.47;;
37077;SDS011;22989;55.998;37.212;2022-08-19T01:40:36;24.50;;;7.90;;
37077;SDS011;22989;55.998;37.212;2022-08-19T01:43:04;21.52;;;7.80;;
37077;SDS011;22989;55.998;37.212;2022-08-19T01:45:32;10.50;;;7.10;;
37077;SDS011;22989;55.998;37.212;2022-08-19T01:47:59;14.13;;;8.18;;
37077;SDS011;22989;55.998;37.212;2022-08-19T01:50:25;18.73;;;7.82;;
37077;SDS011;22989;55.998;37.212;2022-08-19T01:52:51;13.45;;;6.90;;
37077;SDS011;22989;55.998;37.212;2022-08-19T01:55:18;14.75;;;7.57;;
37077;SDS011;22989;55.998;37.212;2022-08-19T01:57:48;13.43;;;7.03;;
37077;SDS011;22989;55.998;37.212;2022-08-19T02:00:19;11.75;;;7.55;;
37077;SDS011;22989;55.998;37.212;2022-08-19T02:02:47;12.10;;;6.15;;
37077;SDS011;22989;55.998;37.212;2022-08-19T02:05:13;10.88;;;6.35;;
37077;SDS011;22989;55.998;37.212;2022-08-19T02:07:39;15.55;;;6.63;;
37077;SDS011;22989;55.998;37.212;2022-08-19T02:10:07;11.32;;;6.50;;
37077;SDS011;22989;55.998;37.212;2022-08-19T02:12:35;17.23;;;6.57;;
37077;SDS011;22989;55.998;37.212;2022-08-19T02:15:02;11.57;;;6.55;;
37077;SDS011;22989;55.998;37.212;2022-08-19T02:17:28;16.50;;;6.63;;
37077;SDS011;22989;55.998;37.212;2022-08-19T02:19:55;10.70;;;6.75;;
37077;SDS011;22989;55.998;37.212;2022-08-19T02:22:22;11.00;;;6.35;;
37077;SDS011;22989;55.998;37.212;2022-08-19T02:24:51;11.68;;;6.20;;
37077;SDS011;22989;55.998;37.212;2022-08-19T02:27:17;11.15;;;6.28;;
37077;SDS011;22989;55.998;37.212;2022-08-19T02:29:45;11.45;;;6.55;;
37077;SDS011;22989;55.998;37.212;2022-08-19T02:32:12;9.60;;;6.00;;
37077;SDS011;22989;55.998;37.212;2022-08-19T02:34:38;13.85;;;6.07;;
37077;SDS011;22989;55.998;37.212;2022-08-19T02:37:05;9.10;;;5.78;;
37077;SDS011;22989;55.998;37.212;2022-08-19T02:39:30;12.32;;;5.55;;
37077;SDS011;22989;55.998;37.212;2022-08-19T02:41:56;12.23;;;5.80;;
37077;SDS011;22989;55.998;37.212;2022-08-19T02:44:22;11.45;;;5.78;;
37077;SDS011;22989;55.998;37.212;2022-08-19T02:46:48;12.43;;;5.45;;
37077;SDS011;22989;55.998;37.212;2022-08-19T02:49:17;8.48;;;5.32;;
37077;SDS011;22989;55.998;37.212;2022-08-19T02:51:43;8.50;;;5.55;;
37077;SDS011;22989;55.998;37.212;2022-08-19T02:54:11;10.10;;;5.68;;
37077;SDS011;22989;55.998;37.212;2022-08-19T02:56:38;10.98;;;5.40;;
37077;SDS011;22989;55.998;37.212;2022-08-19T02:59:06;8.75;;;5.40;;
37077;SDS011;22989;55.998;37.212;2022-08-19T03:01:33;14.77;;;5.35;;
37077;SDS011;22989;55.998;37.212;2022-08-19T03:04:01;22.60;;;6.13;;
37077;SDS011;22989;55.998;37.212;2022-08-19T03:06:29;9.45;;;4.93;;
37077;SDS011;22989;55.998;37.212;2022-08-19T03:08:56;7.43;;;5.30;;
37077;SDS011;22989;55.998;37.212;2022-08-19T03:11:25;9.48;;;5.60;;
37077;SDS011;22989;55.998;37.212;2022-08-19T03:13:53;14.50;;;5.50;;
37077;SDS011;22989;55.998;37.212;2022-08-19T03:16:23;14.60;;;5.53;;
37077;SDS011;22989;55.998;37.212;2022-08-19T03:18:51;10.40;;;5.22;;
37077;SDS011;22989;55.998;37.212;2022-08-19T03:21:22;11.00;;;5.20;;
37077;SDS011;22989;55.998;37.212;2022-08-19T03:23:53;10.52;;;5.15;;
37077;SDS011;22989;55.998;37.212;2022-08-19T03:26:19;14.07;;;5.38;;
37077;SDS011;22989;55.998;37.212;2022-08-19T03:28:45;11.35;;;5.05;;
37077;SDS011;22989;55.998;37.212;2022-08-19T03:31:15;9.90;;;4.57;;
37077;SDS011;22989;55.998;37.212;2022-08-19T03:33:43;5.43;;;4.50;;
37077;SDS011;22989;55.998;37.212;2022-08-19T03:36:11;10.43;;;4.47;;
37077;SDS011;22989;55.998;37.212;2022-08-19T03:38:40;9.05;;;4.97;;
37077;SDS011;22989;55.998;37.212;2022-08-19T03:41:11;8.73;;;4.30;;
37077;SDS011;22989;55.998;37.212;2022-08-19T03:43:40;12.57;;;4.40;;
37077;SDS011;22989;55.998;37.212;2022-08-19T03:46:09;9.15;;;4.55;;
37077;SDS011;22989;55.998;37.212;2022-08-19T03:48:38;7.30;;;4.68;;
37077;SDS011;22989;55.998;37.212;2022-08-19T03:51:06;11.43;;;4.68;;
37077;SDS011;22989;55.998;37.212;2022-08-19T03:53:34;9.35;;;4.40;;
37077;SDS011;22989;55.998;37.212;2022-08-19T03:56:00;10.00;;;4.53;;
37077;SDS011;22989;55.998;37.212;2022-08-19T03:58:27;9.57;;;4.40;;
37077;SDS011;22989;55.998;37.212;2022-08-19T04:00:55;7.95;;;4.43;;
37077;SDS011;22989;55.998;37.212;2022-08-19T04:03:22;8.77;;;4.20;;
37077;SDS011;22989;55.998;37.212;2022-08-19T04:05:48;7.75;;;4.82;;
37077;SDS011;22989;55.998;37.212;2022-08-19T04:08:14;9.10;;;4.63;;
37077;SDS011;22989;55.998;37.212;2022-08-19T04:10:45;9.40;;;4.22;;
37077;SDS011;22989;55.998;37.212;2022-08-19T04:13:13;8.15;;;3.90;;
37077;SDS011;22989;55.998;37.212;2022-08-19T04:15:40;7.40;;;3.85;;
37077;SDS011;22989;55.998;37.212;2022-08-19T04:18:08;9.75;;;4.60;;
37077;SDS011;22989;55.998;37.212;2022-08-19T04:20:42;9.20;;;3.90;;
37077;SDS011;22989;55.998;37.212;2022-08-19T04:23:10;6.43;;;4.10;;
37077;SDS011;22989;55.998;37.212;2022-08-19T04:25:40;8.68;;;3.88;;
37077;SDS011;22989;55.998;37.212;2022-08-19T04:28:08;7.63;;;4.00;;
37077;SDS011;22989;55.998;37.212;2022-08-19T04:30:40;10.07;;;3.90;;
37077;SDS011;22989;55.998;37.212;2022-08-19T04:33:09;4.63;;;3.72;;
37077;SDS011;22989;55.998;37.212;2022-08-19T04:35:40;8.45;;;3.70;;
37077;SDS011;22989;55.998;37.212;2022-08-19T04:38:07;6.40;;;3.67;;
37077;SDS011;22989;55.998;37.212;2022-08-19T04:40:39;12.30;;;4.18;;
37077;SDS011;22989;55.998;37.212;2022-08-19T04:43:24;8.80;;;3.90;;
37077;SDS011;22989;55.998;37.212;2022-08-19T04:45:50;9.48;;;3.50;;
37077;SDS011;22989;55.998;37.212;2022-08-19T04:48:16;9.27;;;3.95;;
37077;SDS011;22989;55.998;37.212;2022-08-19T04:50:47;8.82;;;4.07;;
37077;SDS011;22989;55.998;37.212;2022-08-19T04:53:13;8.73;;;3.72;;
37077;SDS011;22989;55.998;37.212;2022-08-19T04:55:40;10.40;;;4.20;;
37077;SDS011;22989;55.998;37.212;2022-08-19T04:58:07;10.48;;;3.90;;
37077;SDS011;22989;55.998;37.212;2022-08-19T05:00:32;8.00;;;3.85;;
37077;SDS011;22989;55.998;37.212;2022-08-19T05:02:58;10.60;;;3.70;;
37077;SDS011;22989;55.998;37.212;2022-08-19T05:05:24;12.35;;;3.53;;
37077;SDS011;22989;55.998;37.212;2022-08-19T05:07:50;8.32;;;3.80;;
37077;SDS011;22989;55.998;37.212;2022-08-19T05:10:15;5.25;;;3.47;;
37077;SDS011;22989;55.998;37.212;2022-08-19T05:12:41;5.45;;;3.63;;
37077;SDS011;22989;55.998;37.212;2022-08-19T05:15:07;13.52;;;3.50;;
37077;SDS011;22989;55.998;37.212;2022-08-19T05:17:36;8.57;;;3.70;;
37077;SDS011;22989;55.998;37.212;2022-08-19T05:20:03;7.15;;;3.70;;
37077;SDS011;22989;55.998;37.212;2022-08-19T05:22:48;6.15;;;3.42;;
37077;SDS011;22989;55.998;37.212;2022-08-19T05:25:17;10.45;;;3.88;;
37077;SDS011;22989;55.998;37.212;2022-08-19T05:27:44;9.02;;;3.65;;
37077;SDS011;22989;55.998;37.212;2022-08-19T05:30:10;10.82;;;3.92;;
37077;SDS011;22989;55.998;37.212;2022-08-19T05:32:37;7.00;;;3.90;;
37077;SDS011;22989;55.998;37.212;2022-08-19T05:35:04;9.30;;;4.13;;
37077;SDS011;22989;55.998;37.212;2022-08-19T05:37:30;8.50;;;3.72;;
37077;SDS011;22989;55.998;37.212;2022-08-19T05:39:56;8.60;;;4.32;;
37077;SDS011;22989;55.998;37.212;2022-08-19T05:42:22;11.38;;;4.13;;
37077;SDS011;22989;55.998;37.212;2022-08-19T05:44:48;7.68;;;4.00;;
37077;SDS011;22989;55.998;37.212;2022-08-19T05:47:15;14.15;;;4.00;;
37077;SDS011;22989;55.998;37.212;2022-08-19T05:49:44;6.00;;;3.33;;
37077;SDS011;22989;55.998;37.212;2022-08-19T05:52:10;7.68;;;4.15;;
37077;SDS011;22989;55.998;37.212;2022-08-19T05:54:39;9.90;;;4.07;;
37077;SDS011;22989;55.998;37.212;2022-08-19T05:57:06;9.98;;;3.95;;
37077;SDS011;22989;55.998;37.212;2022-08-19T05:59:32;6.68;;;3.58;;
37077;SDS011;22989;55.998;37.212;2022-08-19T06:02:00;7.00;;;4.00;;
37077;SDS011;22989;55.998;37.212;2022-08-19T06:04:27;10.27;;;3.90;;
37077;SDS011;22989;55.998;37.212;2022-08-19T06:06:53;5.82;;;3.72;;
37077;SDS011;22989;55.998;37.212;2022-08-19T06:09:19;8.43;;;3.75;;
37077;SDS011;22989;55.998;37.212;2022-08-19T06:11:51;9.85;;;3.75;;
37077;SDS011;22989;55.998;37.212;2022-08-19T06:14:20;8.40;;;4.03;;
37077;SDS011;22989;55.998;37.212;2022-08-19T06:16:49;10.05;;;3.45;;
37077;SDS011;22989;55.998;37.212;2022-08-19T06:19:18;7.22;;;3.63;;
37077;SDS011;22989;55.998;37.212;2022-08-19T06:21:46;12.75;;;3.75;;
37077;SDS011;22989;55.998;37.212;2022-08-19T06:24:14;9.77;;;3.67;;
37077;SDS011;22989;55.998;37.212;2022-08-19T06:26:46;6.70;;;3.75;;
37077;SDS011;22989;55.998;37.212;2022-08-19T06:29:13;8.45;;;4.05;;
37077;SDS011;22989;55.998;37.212;2022-08-19T06:31:41;6.75;;;3.63;;
37077;SDS011;22989;55.998;37.212;2022-08-19T06:34:09;4.88;;;3.40;;
37077;SDS011;22989;55.998;37.212;2022-08-19T06:36:36;7.65;;;3.50;;
37077;SDS011;22989;55.998;37.212;2022-08-19T06:39:05;6.60;;;3.65;;
37077;SDS011;22989;55.998;37.212;2022-08-19T06:41:34;10.80;;;3.97;;
37077;SDS011;22989;55.998;37.212;2022-08-19T06:44:03;9.95;;;3.85;;
37077;SDS011;22989;55.998;37.212;2022-08-19T06:46:29;10.57;;;4.13;;
37077;SDS011;22989;55.998;37.212;2022-08-19T06:48:56;7.72;;;3.90;;
37077;SDS011;22989;55.998;37.212;2022-08-19T06:51:23;10.05;;;4.13;;
37077;SDS011;22989;55.998;37.212;2022-08-19T06:53:49;7.85;;;3.60;;
37077;SDS011;22989;55.998;37.212;2022-08-19T06:56:21;11.90;;;3.88;;
37077;SDS011;22989;55.998;37.212;2022-08-19T06:58:50;7.03;;;3.67;;
37077;SDS011;22989;55.998;37.212;2022-08-19T07:01:18;9.07;;;3.97;;
37077;SDS011;22989;55.998;37.212;2022-08-19T07:03:44;10.25;;;4.00;;
37077;SDS011;22989;55.998;37.212;2022-08-19T07:06:15;9.90;;;3.95;;
37077;SDS011;22989;55.998;37.212;2022-08-19T07:08:43;11.23;;;3.83;;
37077;SDS011;22989;55.998;37.212;2022-08-19T07:11:12;7.38;;;4.05;;
37077;SDS011;22989;55.998;37.212;2022-08-19T07:13:40;8.82;;;3.90;;
37077;SDS011;22989;55.998;37.212;2022-08-19T07:16:17;13.73;;;4.03;;
37077;SDS011;22989;55.998;37.212;2022-08-19T07:18:45;9.40;;;4.45;;
37077;SDS011;22989;55.998;37.212;2022-08-19T07:21:16;8.20;;;4.18;;
37077;SDS011;22989;55.998;37.212;2022-08-19T07:23:48;7.85;;;4.30;;
37077;SDS011;22989;55.998;37.212;2022-08-19T07:26:15;11.65;;;4.50;;
37077;SDS011;22989;55.998;37.212;2022-08-19T07:28:47;9.10;;;4.43;;
37077;SDS011;22989;55.998;37.212;2022-08-19T07:31:14;13.80;;;4.72;;
37077;SDS011;22989;55.998;37.212;2022-08-19T07:33:43;6.05;;;4.28;;
37077;SDS011;22989;55.998;37.212;2022-08-19T07:36:11;7.35;;;4.32;;
37077;SDS011;22989;55.998;37.212;2022-08-19T07:38:40;8.50;;;4.20;;
37077;SDS011;22989;55.998;37.212;2022-08-19T07:41:10;7.63;;;3.85;;
37077;SDS011;22989;55.998;37.212;2022-08-19T07:43:38;7.00;;;3.75;;
37077;SDS011;22989;55.998;37.212;2022-08-19T07:46:04;6.38;;;4.00;;
37077;SDS011;22989;55.998;37.212;2022-08-19T07:48:31;9.95;;;3.85;;
37077;SDS011;22989;55.998;37.212;2022-08-19T07:50:59;7.53;;;3.85;;
37077;SDS011;22989;55.998;37.212;2022-08-19T07:53:27;12.93;;;3.95;;
37077;SDS011;22989;55.998;37.212;2022-08-19T07:55:55;13.27;;;4.00;;
37077;SDS011;22989;55.998;37.212;2022-08-19T07:58:25;5.60;;;3.78;;
37077;SDS011;22989;55.998;37.212;2022-08-19T08:00:50;4.85;;;3.80;;
37077;SDS011;22989;55.998;37.212;2022-08-19T08:03:18;9.93;;;4.57;;
37077;SDS011;22989;55.998;37.212;2022-08-19T08:05:45;7.43;;;4.38;;
37077;SDS011;22989;55.998;37.212;2022-08-19T08:08:30;11.80;;;4.30;;
37077;SDS011;22989;55.998;37.212;2022-08-19T08:11:02;7.63;;;4.05;;
37077;SDS011;22989;55.998;37.212;2022-08-19T08:13:29;9.52;;;4.00;;
37077;SDS011;22989;55.998;37.212;2022-08-19T08:15:55;7.50;;;4.03;;
37077;SDS011;22989;55.998;37.212;2022-08-19T08:18:22;5.38;;;4.10;;
37077;SDS011;22989;55.998;37.212;2022-08-19T08:20:49;8.50;;;4.13;;
37077;SDS011;22989;55.998;37.212;2022-08-19T08:23:16;7.03;;;4.07;;
37077;SDS011;22989;55.998;37.212;2022-08-19T08:25:50;9.23;;;4.32;;
37077;SDS011;22989;55.998;37.212;2022-08-19T08:28:18;5.90;;;4.18;;
37077;SDS011;22989;55.998;37.212;2022-08-19T08:30:48;8.13;;;4.03;;
37077;SDS011;22989;55.998;37.212;2022-08-19T08:33:18;5.65;;;3.90;;
37077;SDS011;22989;55.998;37.212;2022-08-19T08:35:47;6.68;;;4.25;;
37077;SDS011;22989;55.998;37.212;2022-08-19T08:38:15;8.32;;;4.43;;
37077;SDS011;22989;55.998;37.212;2022-08-19T08:40:45;5.15;;;3.88;;
37077;SDS011;22989;55.998;37.212;2022-08-19T08:43:27;8.85;;;4.00;;
37077;SDS011;22989;55.998;37.212;2022-08-19T08:46:06;10.07;;;4.10;;
37077;SDS011;22989;55.998;37.212;2022-08-19T08:48:51;11.93;;;4.00;;
37077;SDS011;22989;55.998;37.212;2022-08-19T08:51:32;15.52;;;4.00;;
37077;SDS011;22989;55.998;37.212;2022-08-19T08:54:01;10.70;;;3.25;;
37077;SDS011;22989;55.998;37.212;2022-08-19T08:56:30;16.35;;;3.53;;
37077;SDS011;22989;55.998;37.212;2022-08-19T08:59:02;7.72;;;3.03;;
37077;SDS011;22989;55.998;37.212;2022-08-19T09:01:43;11.18;;;3.45;;
37077;SDS011;22989;55.998;37.212;2022-08-19T09:04:10;9.63;;;3.20;;
37077;SDS011;22989;55.998;37.212;2022-08-19T09:06:40;13.05;;;3.60;;
37077;SDS011;22989;55.998;37.212;2022-08-19T09:09:32;8.23;;;3.38;;
37077;SDS011;22989;55.998;37.212;2022-08-19T09:15:07;10.65;;;3.72;;
37077;SDS011;22989;55.998;37.212;2022-08-19T09:17:37;7.25;;;3.33;;
37077;SDS011;22989;55.998;37.212;2022-08-19T09:20:14;10.23;;;3.45;;
37077;SDS011;22989;55.998;37.212;2022-08-19T09:22:44;10.30;;;3.08;;
37077;SDS011;22989;55.998;37.212;2022-08-19T09:25:10;12.27;;;3.67;;
37077;SDS011;22989;55.998;37.212;2022-08-19T09:27:40;4.28;;;3.10;;
37077;SDS011;22989;55.998;37.212;2022-08-19T09:30:08;9.02;;;3.20;;
37077;SDS011;22989;55.998;37.212;2022-08-19T09:32:37;9.68;;;2.85;;
37077;SDS011;22989;55.998;37.212;2022-08-19T09:35:04;9.77;;;3.20;;
37077;SDS011;22989;55.998;37.212;2022-08-19T09:37:31;6.53;;;2.80;;
37077;SDS011;22989;55.998;37.212;2022-08-19T09:39:57;15.82;;;3.30;;
37077;SDS011;22989;55.998;37.212;2022-08-19T09:42:23;8.38;;;3.10;;
37077;SDS011;22989;55.998;37.212;2022-08-19T09:44:48;11.07;;;3.28;;
37077;SDS011;22989;55.998;37.212;2022-08-19T09:47:14;6.95;;;3.30;;
37077;SDS011;22989;55.998;37.212;2022-08-19T09:49:40;8.57;;;2.72;;
37077;SDS011;22989;55.998;37.212;2022-08-19T09:52:10;4.15;;;2.60;;
37077;SDS011;22989;55.998;37.212;2022-08-19T09:54:37;9.38;;;3.13;;
37077;SDS011;22989;55.998;37.212;2022-08-19T09:57:04;6.15;;;3.20;;
37077;SDS011;22989;55.998;37.212;2022-08-19T09:59:30;6.53;;;3.08;;
37077;SDS011;22989;55.998;37.212;2022-08-19T10:01:58;7.78;;;3.38;;
37077;SDS011;22989;55.998;37.212;2022-08-19T10:04:25;8.48;;;3.28;;
37077;SDS011;22989;55.998;37.212;2022-08-19T10:07:14;5.78;;;3.58;;
37077;SDS011;22989;55.998;37.212;2022-08-19T10:09:40;7.55;;;3.72;;
37077;SDS011;22989;55.998;37.212;2022-08-19T10:12:06;8.90;;;3.85;;
37077;SDS011;22989;55.998;37.212;2022-08-19T10:14:34;8.75;;;3.75;;
37077;SDS011;22989;55.998;37.212;2022-08-19T10:17:00;9.75;;;3.88;;
37077;SDS011;22989;55.998;37.212;2022-08-19T10:19:28;10.48;;;4.40;;
37077;SDS011;22989;55.998;37.212;2022-08-19T10:21:57;5.85;;;3.90;;
37077;SDS011;22989;55.998;37.212;2022-08-19T10:24:24;5.68;;;3.92;;
37077;SDS011;22989;55.998;37.212;2022-08-19T10:26:51;6.70;;;3.83;;
37077;SDS011;22989;55.998;37.212;2022-08-19T10:29:17;8.07;;;4.03;;
37077;SDS011;22989;55.998;37.212;2022-08-19T10:31:42;7.38;;;3.83;;
37077;SDS011;22989;55.998;37.212;2022-08-19T10:34:08;8.23;;;4.10;;
37077;SDS011;22989;55.998;37.212;2022-08-19T10:36:35;10.07;;;3.80;;
37077;SDS011;22989;55.998;37.212;2022-08-19T10:39:03;6.97;;;4.20;;
37077;SDS011;22989;55.998;37.212;2022-08-19T10:41:35;6.47;;;4.30;;
37077;SDS011;22989;55.998;37.212;2022-08-19T10:44:03;8.95;;;4.35;;
37077;SDS011;22989;55.998;37.212;2022-08-19T10:46:32;9.93;;;4.35;;
37077;SDS011;22989;55.998;37.212;2022-08-19T10:49:01;9.85;;;4.43;;
37077;SDS011;22989;55.998;37.212;2022-08-19T10:51:28;10.05;;;4.38;;
37077;SDS011;22989;55.998;37.212;2022-08-19T10:54:13;8.80;;;4.80;;
37077;SDS011;22989;55.998;37.212;2022-08-19T10:56:40;10.70;;;4.15;;
37077;SDS011;22989;55.998;37.212;2022-08-19T10:59:25;6.80;;;3.58;;
37077;SDS011;22989;55.998;37.212;2022-08-19T11:01:58;7.78;;;3.90;;
37077;SDS011;22989;55.998;37.212;2022-08-19T11:04:24;8.02;;;3.85;;
37077;SDS011;22989;55.998;37.212;2022-08-19T11:06:51;11.25;;;4.20;;
37077;SDS011;22989;55.998;37.212;2022-08-19T11:09:18;11.88;;;3.85;;
37077;SDS011;22989;55.998;37.212;2022-08-19T11:11:52;9.80;;;3.95;;
37077;SDS011;22989;55.998;37.212;2022-08-19T11:14:19;9.05;;;3.83;;
37077;SDS011;22989;55.998;37.212;2022-08-19T11:16:49;12.32;;;3.60;;
37077;SDS011;22989;55.998;37.212;2022-08-19T11:19:16;11.75;;;3.47;;
37077;SDS011;22989;55.998;37.212;2022-08-19T11:21:45;11.15;;;3.58;;
37077;SDS011;22989;55.998;37.212;2022-08-19T11:24:15;13.82;;;3.78;;
37077;SDS011;22989;55.998;37.212;2022-08-19T11:26:46;12.15;;;3.60;;
37077;SDS011;22989;55.998;37.212;2022-08-19T11:29:14;14.75;;;3.92;;
37077;SDS011;22989;55.998;37.212;2022-08-19T11:31:43;9.90;;;3.60;;
37077;SDS011;22989;55.998;37.212;2022-08-19T11:34:11;8.80;;;3.63;;
37077;SDS011;22989;55.998;37.212;2022-08-19T11:36:40;12.07;;;3.63;;
37077;SDS011;22989;55.998;37.212;2022-08-19T11:39:08;8.90;;;3.55;;
37077;SDS011;22989;55.998;37.212;2022-08-19T11:41:36;10.25;;;3.72;;
37077;SDS011;22989;55.998;37.212;2022-08-19T11:44:02;8.20;;;3.40;;
37077;SDS011;22989;55.998;37.212;2022-08-19T11:46:29;8.70;;;3.75;;
37077;SDS011;22989;55.998;37.212;2022-08-19T11:48:56;20.13;;;3.50;;
37077;SDS011;22989;55.998;37.212;2022-08-19T11:51:24;9.65;;;3.35;;
37077;SDS011;22989;55.998;37.212;2022-08-19T11:53:50;10.93;;;3.78;;
37077;SDS011;22989;55.998;37.212;2022-08-19T11:56:17;7.57;;;3.60;;
37077;SDS011;22989;55.998;37.212;2022-08-19T11:58:44;11.32;;;3.65;;
37077;SDS011;22989;55.998;37.212;2022-08-19T12:01:11;9.50;;;3.70;;
37077;SDS011;22989;55.998;37.212;2022-08-19T12:03:39;11.02;;;3.55;;
37077;SDS011;22989;55.998;37.212;2022-08-19T12:06:05;12.10;;;3.38;;
37077;SDS011;22989;55.998;37.212;2022-08-19T12:08:32;11.43;;;3.42;;
37077;SDS011;22989;55.998;37.212;2022-08-19T12:10:58;9.52;;;3.35;;
37077;SDS011;22989;55.998;37.212;2022-08-19T12:13:26;8.57;;;3.90;;
37077;SDS011;22989;55.998;37.212;2022-08-19T12:15:53;13.90;;;3.70;;
37077;SDS011;22989;55.998;37.212;2022-08-19T12:18:19;10.45;;;3.58;;
37077;SDS011;22989;55.998;37.212;2022-08-19T12:20:45;7.15;;;3.17;;
37077;SDS011;22989;55.998;37.212;2022-08-19T12:23:12;12.45;;;3.65;;
37077;SDS011;22989;55.998;37.212;2022-08-19T12:25:44;10.95;;;3.28;;
37077;SDS011;22989;55.998;37.212;2022-08-19T12:28:18;16.40;;;4.03;;
37077;SDS011;22989;55.998;37.212;2022-08-19T12:31:11;17.02;;;3.95;;
37077;SDS011;22989;55.998;37.212;2022-08-19T12:33:37;9.40;;;3.25;;
37077;SDS011;22989;55.998;37.212;2022-08-19T12:36:05;9.10;;;3.45;;
37077;SDS011;22989;55.998;37.212;2022-08-19T12:38:33;9.80;;;3.13;;
37077;SDS011;22989;55.998;37.212;2022-08-19T12:41:02;7.32;;;3.30;;
37077;SDS011;22989;55.998;37.212;2022-08-19T12:43:31;8.80;;;3.03;;
37077;SDS011;22989;55.998;37.212;2022-08-19T12:45:59;8.98;;;3.25;;
37077;SDS011;22989;55.998;37.212;2022-08-19T12:48:26;13.45;;;3.65;;
37077;SDS011;22989;55.998;37.212;2022-08-19T12:50:52;8.50;;;3.13;;
37077;SDS011;22989;55.998;37.212;2022-08-19T12:53:18;9.02;;;3.95;;
37077;SDS011;22989;55.998;37.212;2022-08-19T12:55:43;10.63;;;3.70;;
37077;SDS011;22989;55.998;37.212;2022-08-19T12:58:09;10.98;;;3.72;;
37077;SDS011;22989;55.998;37.212;2022-08-19T13:00:38;10.73;;;3.50;;
37077;SDS011;22989;55.998;37.212;2022-08-19T13:03:04;8.45;;;4.25;;
37077;SDS011;22989;55.998;37.212;2022-08-19T13:05:30;11.38;;;3.70;;
37077;SDS011;22989;55.998;37.212;2022-08-19T13:07:59;6.45;;;3.22;;
37077;SDS011;22989;55.998;37.212;2022-08-19T13:10:27;8.65;;;3.53;;
37077;SDS011;22989;55.998;37.212;2022-08-19T13:13:00;10.00;;;3.40;;
37077;SDS011;22989;55.998;37.212;2022-08-19T13:15:28;11.02;;;3.80;;
37077;SDS011;22989;55.998;37.212;2022-08-19T13:17:56;14.10;;;3.60;;
37077;SDS011;22989;55.998;37.212;2022-08-19T13:20:23;12.63;;;3.28;;
37077;SDS011;22989;55.998;37.212;2022-08-19T13:22:49;7.28;;;3.78;;
37077;SDS011;22989;55.998;37.212;2022-08-19T13:25:15;9.40;;;3.40;;
37077;SDS011;22989;55.998;37.212;2022-08-19T13:27:43;5.50;;;3.08;;
37077;SDS011;22989;55.998;37.212;2022-08-19T13:30:11;10.05;;;3.40;;
37077;SDS011;22989;55.998;37.212;2022-08-19T13:32:57;8.77;;;3.38;;
37077;SDS011;22989;55.998;37.212;2022-08-19T13:35:38;9.48;;;3.60;;
37077;SDS011;22989;55.998;37.212;2022-08-19T13:38:07;9.73;;;4.10;;
37077;SDS011;22989;55.998;37.212;2022-08-19T13:40:33;6.97;;;3.42;;
37077;SDS011;22989;55.998;37.212;2022-08-19T13:42:59;9.05;;;3.80;;
37077;SDS011;22989;55.998;37.212;2022-08-19T13:45:27;6.75;;;3.63;;
37077;SDS011;22989;55.998;37.212;2022-08-19T13:47:54;9.15;;;3.80;;
37077;SDS011;22989;55.998;37.212;2022-08-19T13:50:23;10.45;;;4.22;;
37077;SDS011;22989;55.998;37.212;2022-08-19T13:52:51;9.45;;;4.30;;
37077;SDS011;22989;55.998;37.212;2022-08-19T13:55:17;8.95;;;3.78;;
37077;SDS011;22989;55.998;37.212;2022-08-19T13:57:44;10.70;;;4.03;;
37077;SDS011;22989;55.998;37.212;2022-08-19T14:00:15;13.05;;;4.03;;
37077;SDS011;22989;55.998;37.212;2022-08-19T14:02:44;9.07;;;4.00;;
37077;SDS011;22989;55.998;37.212;2022-08-19T14:05:14;9.02;;;3.50;;
37077;SDS011;22989;55.998;37.212;2022-08-19T14:07:41;8.80;;;3.63;;
37077;SDS011;22989;55.998;37.212;2022-08-19T14:10:08;6.38;;;3.60;;
37077;SDS011;22989;55.998;37.212;2022-08-19T14:12:36;10.52;;;4.15;;
37077;SDS011;22989;55.998;37.212;2022-08-19T14:15:02;14.82;;;4.43;;
37077;SDS011;22989;55.998;37.212;2022-08-19T14:17:29;11.48;;;4.40;;
37077;SDS011;22989;55.998;37.212;2022-08-19T14:19:59;7.22;;;4.28;;
37077;SDS011;22989;55.998;37.212;2022-08-19T14:22:38;12.57;;;4.47;;
37077;SDS011;22989;55.998;37.212;2022-08-19T14:25:06;8.18;;;4.10;;
37077;SDS011;22989;55.998;37.212;2022-08-19T14:27:34;14.70;;;4.07;;
37077;SDS011;22989;55.998;37.212;2022-08-19T14:30:02;6.65;;;3.80;;
37077;SDS011;22989;55.998;37.212;2022-08-19T14:32:28;13.90;;;4.40;;
37077;SDS011;22989;55.998;37.212;2022-08-19T14:34:55;11.50;;;4.70;;
37077;SDS011;22989;55.998;37.212;2022-08-19T14:37:20;11.63;;;4.38;;
37077;SDS011;22989;55.998;37.212;2022-08-19T14:39:47;14.20;;;4.50;;